sensor_id;sensor_type;location;lat;lon;timestamp;temperature;humidity
41058;DHT22;66768;48.884;2.258;2023-04-03T00:00:40;9.00;99.90
41058;DHT22;66768;48.884;2.258;2023-04-03T00:03:07;9.00;99.90
41058;DHT22;66768;48.884;2.258;2023-04-03T00:05:34;9.00;99.90
41058;DHT22;66768;48.884;2.258;2023-04-03T00:08:01;9.00;99.90
41058;DHT22;66768;48.884;2.258;2023-04-03T00:10:28;9.00;99.90
41058;DHT22;66768;48.884;2.258;2023-04-03T00:12:57;9.00;99.90
41058;DHT22;66768;48.884;2.258;2023-04-03T00:15:23;9.00;99.90
41058;DHT22;66768;48.884;2.258;2023-04-03T00:17:50;9.00;99.90
41058;DHT22;66768;48.884;2.258;2023-04-03T00:20:17;8.90;99.90
41058;DHT22;66768;48.884;2.258;2023-04-03T00:22:44;8.90;99.90
41058;DHT22;66768;48.884;2.258;2023-04-03T00:25:11;8.90;99.90
41058;DHT22;66768;48.884;2.258;2023-04-03T00:27:39;8.90;99.90
41058;DHT22;66768;48.884;2.258;2023-04-03T00:30:10;8.90;99.90
41058;DHT22;66768;48.884;2.258;2023-04-03T00:32:39;9.00;99.90
41058;DHT22;66768;48.884;2.258;2023-04-03T00:35:06;9.00;99.90
41058;DHT22;66768;48.884;2.258;2023-04-03T00:37:34;8.90;99.90
41058;DHT22;66768;48.884;2.258;2023-04-03T00:40:01;9.00;99.90
41058;DHT22;66768;48.884;2.258;2023-04-03T00:42:29;9.00;99.90
41058;DHT22;66768;48.884;2.258;2023-04-03T00:45:27;9.00;99.90
41058;DHT22;66768;48.884;2.258;2023-04-03T00:47:54;8.90;99.90
41058;DHT22;66768;48.884;2.258;2023-04-03T00:50:22;8.90;99.90
41058;DHT22;66768;48.884;2.258;2023-04-03T00:52:49;8.90;99.90
41058;DHT22;66768;48.884;2.258;2023-04-03T00:55:16;8.90;99.90
41058;DHT22;66768;48.884;2.258;2023-04-03T00:57:44;8.90;99.90
41058;DHT22;66768;48.884;2.258;2023-04-03T01:00:15;8.90;99.90
41058;DHT22;66768;48.884;2.258;2023-04-03T01:02:44;8.90;99.90
41058;DHT22;66768;48.884;2.258;2023-04-03T01:05:11;9.00;99.90
41058;DHT22;66768;48.884;2.258;2023-04-03T01:07:39;9.00;99.90
41058;DHT22;66768;48.884;2.258;2023-04-03T01:10:08;9.00;99.90
41058;DHT22;66768;48.884;2.258;2023-04-03T01:12:37;9.00;99.90
41058;DHT22;66768;48.884;2.258;2023-04-03T01:15:07;8.90;99.90
41058;DHT22;66768;48.884;2.258;2023-04-03T01:17:37;8.90;99.90
41058;DHT22;66768;48.884;2.258;2023-04-03T01:20:36;8.90;99.90
41058;DHT22;66768;48.884;2.258;2023-04-03T01:23:21;8.90;99.90
41058;DHT22;66768;48.884;2.258;2023-04-03T01:25:52;8.90;99.90
41058;DHT22;66768;48.884;2.258;2023-04-03T01:28:22;8.90;99.90
41058;DHT22;66768;48.884;2.258;2023-04-03T01:30:51;8.90;99.90
41058;DHT22;66768;48.884;2.258;2023-04-03T01:33:21;8.70;99.90
41058;DHT22;66768;48.884;2.258;2023-04-03T01:35:48;8.70;99.90
41058;DHT22;66768;48.884;2.258;2023-04-03T01:38:15;8.60;99.90
41058;DHT22;66768;48.884;2.258;2023-04-03T01:40:42;8.60;99.90
41058;DHT22;66768;48.884;2.258;2023-04-03T01:43:09;8.60;99.90
41058;DHT22;66768;48.884;2.258;2023-04-03T01:45:36;8.70;99.90
41058;DHT22;66768;48.884;2.258;2023-04-03T01:48:03;8.60;99.90
41058;DHT22;66768;48.884;2.258;2023-04-03T01:50:31;8.50;99.90
41058;DHT22;66768;48.884;2.258;2023-04-03T01:52:58;8.60;99.90
41058;DHT22;66768;48.884;2.258;2023-04-03T01:55:25;8.50;99.90
41058;DHT22;66768;48.884;2.258;2023-04-03T01:57:52;8.60;99.90
41058;DHT22;66768;48.884;2.258;2023-04-03T02:00:19;8.60;99.90
41058;DHT22;66768;48.884;2.258;2023-04-03T02:02:46;8.60;99.90
41058;DHT22;66768;48.884;2.258;2023-04-03T02:05:13;8.60;99.90
41058;DHT22;66768;48.884;2.258;2023-04-03T02:07:41;8.50;99.90
41058;DHT22;66768;48.884;2.258;2023-04-03T02:10:08;8.50;99.90
41058;DHT22;66768;48.884;2.258;2023-04-03T02:12:35;8.50;99.90
41058;DHT22;66768;48.884;2.258;2023-04-03T02:15:03;8.50;99.90
41058;DHT22;66768;48.884;2.258;2023-04-03T02:17:30;8.50;99.90
41058;DHT22;66768;48.884;2.258;2023-04-03T02:19:57;8.50;99.90
41058;DHT22;66768;48.884;2.258;2023-04-03T02:22:23;8.50;99.90
41058;DHT22;66768;48.884;2.258;2023-04-03T02:24:52;8.50;99.90
41058;DHT22;66768;48.884;2.258;2023-04-03T02:27:19;8.60;99.90
41058;DHT22;66768;48.884;2.258;2023-04-03T02:29:45;8.50;99.90
41058;DHT22;66768;48.884;2.258;2023-04-03T02:32:12;8.50;99.90
41058;DHT22;66768;48.884;2.258;2023-04-03T02:34:39;8.40;99.90
41058;DHT22;66768;48.884;2.258;2023-04-03T02:37:06;8.40;99.90
41058;DHT22;66768;48.884;2.258;2023-04-03T02:39:33;8.50;99.90
41058;DHT22;66768;48.884;2.258;2023-04-03T02:42:01;8.50;99.90
41058;DHT22;66768;48.884;2.258;2023-04-03T02:44:29;8.50;99.90
41058;DHT22;66768;48.884;2.258;2023-04-03T02:46:56;8.50;99.90
41058;DHT22;66768;48.884;2.258;2023-04-03T02:49:22;8.50;99.90
41058;DHT22;66768;48.884;2.258;2023-04-03T02:51:49;8.40;99.90
41058;DHT22;66768;48.884;2.258;2023-04-03T02:54:17;8.40;99.90
41058;DHT22;66768;48.884;2.258;2023-04-03T02:56:44;8.50;99.90
41058;DHT22;66768;48.884;2.258;2023-04-03T02:59:12;8.40;99.90
41058;DHT22;66768;48.884;2.258;2023-04-03T03:01:39;8.40;99.90
41058;DHT22;66768;48.884;2.258;2023-04-03T03:04:06;8.50;99.90
41058;DHT22;66768;48.884;2.258;2023-04-03T03:06:33;8.40;99.90
41058;DHT22;66768;48.884;2.258;2023-04-03T03:09:00;8.50;99.90
41058;DHT22;66768;48.884;2.258;2023-04-03T03:11:27;8.40;99.90
41058;DHT22;66768;48.884;2.258;2023-04-03T03:13:54;8.40;99.90
41058;DHT22;66768;48.884;2.258;2023-04-03T03:16:22;8.40;99.90
41058;DHT22;66768;48.884;2.258;2023-04-03T03:18:49;8.40;99.90
41058;DHT22;66768;48.884;2.258;2023-04-03T03:21:16;8.40;99.90
41058;DHT22;66768;48.884;2.258;2023-04-03T03:23:43;8.40;99.90
41058;DHT22;66768;48.884;2.258;2023-04-03T03:26:10;8.40;99.90
41058;DHT22;66768;48.884;2.258;2023-04-03T03:28:38;8.30;99.90
41058;DHT22;66768;48.884;2.258;2023-04-03T03:31:06;8.30;99.90
41058;DHT22;66768;48.884;2.258;2023-04-03T03:33:35;8.30;99.90
41058;DHT22;66768;48.884;2.258;2023-04-03T03:36:02;8.20;99.90
41058;DHT22;66768;48.884;2.258;2023-04-03T03:38:29;8.30;99.90
41058;DHT22;66768;48.884;2.258;2023-04-03T03:40:56;8.20;99.90
41058;DHT22;66768;48.884;2.258;2023-04-03T03:43:23;8.30;99.90
41058;DHT22;66768;48.884;2.258;2023-04-03T03:45:51;8.30;99.90
41058;DHT22;66768;48.884;2.258;2023-04-03T03:48:18;8.30;99.90
41058;DHT22;66768;48.884;2.258;2023-04-03T03:50:47;8.30;99.90
41058;DHT22;66768;48.884;2.258;2023-04-03T03:53:14;8.30;99.90
41058;DHT22;66768;48.884;2.258;2023-04-03T03:55:41;8.30;99.90
41058;DHT22;66768;48.884;2.258;2023-04-03T03:58:08;8.30;99.90
41058;DHT22;66768;48.884;2.258;2023-04-03T04:00:35;8.30;99.90
41058;DHT22;66768;48.884;2.258;2023-04-03T04:03:03;8.30;99.90
41058;DHT22;66768;48.884;2.258;2023-04-03T04:05:30;8.40;99.90
41058;DHT22;66768;48.884;2.258;2023-04-03T04:07:58;8.40;99.90
41058;DHT22;66768;48.884;2.258;2023-04-03T04:10:25;8.40;99.90
41058;DHT22;66768;48.884;2.258;2023-04-03T04:12:52;8.40;99.90
41058;DHT22;66768;48.884;2.258;2023-04-03T04:15:19;8.40;99.90
41058;DHT22;66768;48.884;2.258;2023-04-03T04:17:47;8.40;99.90
41058;DHT22;66768;48.884;2.258;2023-04-03T04:20:14;8.40;99.90
41058;DHT22;66768;48.884;2.258;2023-04-03T04:22:41;8.40;99.90
41058;DHT22;66768;48.884;2.258;2023-04-03T04:25:09;8.30;99.90
41058;DHT22;66768;48.884;2.258;2023-04-03T04:27:36;8.30;99.90
41058;DHT22;66768;48.884;2.258;2023-04-03T04:30:04;8.40;99.90
41058;DHT22;66768;48.884;2.258;2023-04-03T04:32:32;8.40;99.90
41058;DHT22;66768;48.884;2.258;2023-04-03T04:34:59;8.30;99.90
41058;DHT22;66768;48.884;2.258;2023-04-03T04:37:26;8.40;99.90
41058;DHT22;66768;48.884;2.258;2023-04-03T04:39:53;8.40;99.90
41058;DHT22;66768;48.884;2.258;2023-04-03T04:42:21;8.40;99.90
41058;DHT22;66768;48.884;2.258;2023-04-03T04:44:48;8.40;99.90
41058;DHT22;66768;48.884;2.258;2023-04-03T04:47:15;8.40;99.90
41058;DHT22;66768;48.884;2.258;2023-04-03T04:49:42;8.40;99.90
41058;DHT22;66768;48.884;2.258;2023-04-03T04:52:09;8.40;99.90
41058;DHT22;66768;48.884;2.258;2023-04-03T04:54:36;8.50;99.90
41058;DHT22;66768;48.884;2.258;2023-04-03T04:57:03;8.40;99.90
41058;DHT22;66768;48.884;2.258;2023-04-03T04:59:31;8.30;99.90
41058;DHT22;66768;48.884;2.258;2023-04-03T05:01:58;8.40;99.90
41058;DHT22;66768;48.884;2.258;2023-04-03T05:04:25;8.30;99.90
41058;DHT22;66768;48.884;2.258;2023-04-03T05:06:52;8.30;99.90
41058;DHT22;66768;48.884;2.258;2023-04-03T05:09:19;8.30;99.90
41058;DHT22;66768;48.884;2.258;2023-04-03T05:11:46;8.30;99.90
41058;DHT22;66768;48.884;2.258;2023-04-03T05:14:13;8.20;99.90
41058;DHT22;66768;48.884;2.258;2023-04-03T05:16:41;8.20;99.90
41058;DHT22;66768;48.884;2.258;2023-04-03T05:19:09;8.30;99.90
41058;DHT22;66768;48.884;2.258;2023-04-03T05:21:36;8.20;99.90
41058;DHT22;66768;48.884;2.258;2023-04-03T05:24:03;8.20;99.90
41058;DHT22;66768;48.884;2.258;2023-04-03T05:26:31;8.20;99.90
41058;DHT22;66768;48.884;2.258;2023-04-03T05:28:58;8.20;99.90
41058;DHT22;66768;48.884;2.258;2023-04-03T05:31:25;8.20;99.90
41058;DHT22;66768;48.884;2.258;2023-04-03T05:33:56;8.20;99.90
41058;DHT22;66768;48.884;2.258;2023-04-03T05:36:23;8.20;99.90
41058;DHT22;66768;48.884;2.258;2023-04-03T05:38:51;8.20;99.90
41058;DHT22;66768;48.884;2.258;2023-04-03T05:41:18;8.20;99.90
41058;DHT22;66768;48.884;2.258;2023-04-03T05:43:46;8.20;99.90
41058;DHT22;66768;48.884;2.258;2023-04-03T05:46:14;8.20;99.90
41058;DHT22;66768;48.884;2.258;2023-04-03T05:48:42;8.20;99.90
41058;DHT22;66768;48.884;2.258;2023-04-03T05:51:14;8.10;99.80
41058;DHT22;66768;48.884;2.258;2023-04-03T05:53:41;8.20;99.70
41058;DHT22;66768;48.884;2.258;2023-04-03T05:56:10;8.20;99.60
41058;DHT22;66768;48.884;2.258;2023-04-03T05:58:36;8.20;99.60
41058;DHT22;66768;48.884;2.258;2023-04-03T06:01:04;8.20;99.40
41058;DHT22;66768;48.884;2.258;2023-04-03T06:03:31;8.20;99.40
41058;DHT22;66768;48.884;2.258;2023-04-03T06:05:57;8.20;99.30
41058;DHT22;66768;48.884;2.258;2023-04-03T06:08:26;8.10;99.00
41058;DHT22;66768;48.884;2.258;2023-04-03T06:10:53;8.10;99.30
41058;DHT22;66768;48.884;2.258;2023-04-03T06:13:20;8.10;98.90
41058;DHT22;66768;48.884;2.258;2023-04-03T06:15:47;8.10;99.30
41058;DHT22;66768;48.884;2.258;2023-04-03T06:18:14;8.10;98.80
41058;DHT22;66768;48.884;2.258;2023-04-03T06:20:41;8.10;98.70
41058;DHT22;66768;48.884;2.258;2023-04-03T06:23:08;8.10;98.70
41058;DHT22;66768;48.884;2.258;2023-04-03T06:25:37;8.20;98.90
41058;DHT22;66768;48.884;2.258;2023-04-03T06:28:04;8.20;98.80
41058;DHT22;66768;48.884;2.258;2023-04-03T06:30:31;8.20;98.70
41058;DHT22;66768;48.884;2.258;2023-04-03T06:32:58;8.20;98.80
41058;DHT22;66768;48.884;2.258;2023-04-03T06:35:24;8.30;98.60
41058;DHT22;66768;48.884;2.258;2023-04-03T06:37:52;8.20;98.60
41058;DHT22;66768;48.884;2.258;2023-04-03T06:40:22;8.40;99.70
41058;DHT22;66768;48.884;2.258;2023-04-03T06:42:50;8.30;98.80
41058;DHT22;66768;48.884;2.258;2023-04-03T06:45:17;8.40;99.20
41058;DHT22;66768;48.884;2.258;2023-04-03T06:47:44;8.40;98.40
41058;DHT22;66768;48.884;2.258;2023-04-03T06:50:12;8.50;98.90
41058;DHT22;66768;48.884;2.258;2023-04-03T06:52:40;8.50;98.50
41058;DHT22;66768;48.884;2.258;2023-04-03T06:55:08;8.50;98.10
41058;DHT22;66768;48.884;2.258;2023-04-03T06:57:35;8.60;98.20
41058;DHT22;66768;48.884;2.258;2023-04-03T07:00:05;8.50;97.90
41058;DHT22;66768;48.884;2.258;2023-04-03T07:02:34;8.50;97.90
41058;DHT22;66768;48.884;2.258;2023-04-03T07:05:01;8.50;97.90
41058;DHT22;66768;48.884;2.258;2023-04-03T07:07:28;8.50;97.70
41058;DHT22;66768;48.884;2.258;2023-04-03T07:09:55;8.40;97.90
41058;DHT22;66768;48.884;2.258;2023-04-03T07:12:22;8.50;97.70
41058;DHT22;66768;48.884;2.258;2023-04-03T07:14:48;8.60;97.70
41058;DHT22;66768;48.884;2.258;2023-04-03T07:17:17;8.50;97.70
41058;DHT22;66768;48.884;2.258;2023-04-03T07:19:44;8.40;97.80
41058;DHT22;66768;48.884;2.258;2023-04-03T07:22:11;8.50;97.90
41058;DHT22;66768;48.884;2.258;2023-04-03T07:24:38;8.60;97.90
41058;DHT22;66768;48.884;2.258;2023-04-03T07:27:05;8.50;97.70
41058;DHT22;66768;48.884;2.258;2023-04-03T07:29:34;8.40;97.60
41058;DHT22;66768;48.884;2.258;2023-04-03T07:32:01;8.50;97.90
41058;DHT22;66768;48.884;2.258;2023-04-03T07:34:29;8.50;97.60
41058;DHT22;66768;48.884;2.258;2023-04-03T07:36:57;8.50;97.60
41058;DHT22;66768;48.884;2.258;2023-04-03T07:39:24;8.70;97.80
41058;DHT22;66768;48.884;2.258;2023-04-03T07:41:51;8.70;97.80
41058;DHT22;66768;48.884;2.258;2023-04-03T07:44:18;8.70;97.60
41058;DHT22;66768;48.884;2.258;2023-04-03T07:46:45;8.80;98.10
41058;DHT22;66768;48.884;2.258;2023-04-03T07:49:12;8.80;97.80
41058;DHT22;66768;48.884;2.258;2023-04-03T07:51:40;8.80;97.40
41058;DHT22;66768;48.884;2.258;2023-04-03T07:54:07;8.90;97.60
41058;DHT22;66768;48.884;2.258;2023-04-03T07:56:34;8.80;97.30
41058;DHT22;66768;48.884;2.258;2023-04-03T07:59:02;8.90;97.40
41058;DHT22;66768;48.884;2.258;2023-04-03T08:01:29;9.00;97.40
41058;DHT22;66768;48.884;2.258;2023-04-03T08:03:58;9.00;97.40
41058;DHT22;66768;48.884;2.258;2023-04-03T08:06:25;9.00;97.40
41058;DHT22;66768;48.884;2.258;2023-04-03T08:08:53;9.20;97.40
41058;DHT22;66768;48.884;2.258;2023-04-03T08:11:20;9.20;97.40
41058;DHT22;66768;48.884;2.258;2023-04-03T08:13:49;9.30;97.30
41058;DHT22;66768;48.884;2.258;2023-04-03T08:16:18;9.30;97.10
41058;DHT22;66768;48.884;2.258;2023-04-03T08:18:46;9.30;97.10
41058;DHT22;66768;48.884;2.258;2023-04-03T08:21:13;9.30;96.90
41058;DHT22;66768;48.884;2.258;2023-04-03T08:23:41;9.30;97.00
41058;DHT22;66768;48.884;2.258;2023-04-03T08:26:12;9.40;97.00
41058;DHT22;66768;48.884;2.258;2023-04-03T08:28:39;9.20;96.60
41058;DHT22;66768;48.884;2.258;2023-04-03T08:31:09;9.40;96.70
41058;DHT22;66768;48.884;2.258;2023-04-03T08:33:38;9.30;96.80
41058;DHT22;66768;48.884;2.258;2023-04-03T08:36:07;9.40;96.80
41058;DHT22;66768;48.884;2.258;2023-04-03T08:38:34;9.40;96.70
41058;DHT22;66768;48.884;2.258;2023-04-03T08:41:10;9.40;96.60
41058;DHT22;66768;48.884;2.258;2023-04-03T08:43:53;9.40;96.20
41058;DHT22;66768;48.884;2.258;2023-04-03T08:46:26;9.40;95.80
41058;DHT22;66768;48.884;2.258;2023-04-03T08:48:59;9.40;95.20
41058;DHT22;66768;48.884;2.258;2023-04-03T08:51:27;9.30;94.90
41058;DHT22;66768;48.884;2.258;2023-04-03T08:53:58;9.30;94.80
41058;DHT22;66768;48.884;2.258;2023-04-03T08:56:26;9.20;95.10
41058;DHT22;66768;48.884;2.258;2023-04-03T08:58:56;9.40;95.30
41058;DHT22;66768;48.884;2.258;2023-04-03T09:01:27;9.30;95.30
41058;DHT22;66768;48.884;2.258;2023-04-03T09:03:56;9.30;95.60
41058;DHT22;66768;48.884;2.258;2023-04-03T09:06:26;9.40;95.80
41058;DHT22;66768;48.884;2.258;2023-04-03T09:09:07;9.50;95.90
41058;DHT22;66768;48.884;2.258;2023-04-03T09:11:46;9.40;95.60
41058;DHT22;66768;48.884;2.258;2023-04-03T09:14:23;9.50;95.70
41058;DHT22;66768;48.884;2.258;2023-04-03T09:16:54;9.50;95.90
41058;DHT22;66768;48.884;2.258;2023-04-03T09:19:28;9.50;95.40
41058;DHT22;66768;48.884;2.258;2023-04-03T09:22:09;9.60;95.50
41058;DHT22;66768;48.884;2.258;2023-04-03T09:24:38;9.60;95.40
41058;DHT22;66768;48.884;2.258;2023-04-03T09:27:06;9.60;95.20
41058;DHT22;66768;48.884;2.258;2023-04-03T09:29:39;9.80;95.00
41058;DHT22;66768;48.884;2.258;2023-04-03T09:32:21;9.70;94.90
41058;DHT22;66768;48.884;2.258;2023-04-03T09:34:49;9.80;95.00
41058;DHT22;66768;48.884;2.258;2023-04-03T09:37:35;9.60;94.50
41058;DHT22;66768;48.884;2.258;2023-04-03T09:40:03;9.70;94.60
41058;DHT22;66768;48.884;2.258;2023-04-03T09:42:31;9.80;94.40
41058;DHT22;66768;48.884;2.258;2023-04-03T09:45:01;9.70;94.30
41058;DHT22;66768;48.884;2.258;2023-04-03T09:47:30;9.60;94.10
41058;DHT22;66768;48.884;2.258;2023-04-03T09:50:19;9.40;94.20
41058;DHT22;66768;48.884;2.258;2023-04-03T09:52:49;9.50;94.40
41058;DHT22;66768;48.884;2.258;2023-04-03T09:55:18;9.40;94.80
41058;DHT22;66768;48.884;2.258;2023-04-03T09:57:47;9.50;95.00
41058;DHT22;66768;48.884;2.258;2023-04-03T10:00:22;9.60;94.60
41058;DHT22;66768;48.884;2.258;2023-04-03T10:02:51;9.50;94.50
41058;DHT22;66768;48.884;2.258;2023-04-03T10:05:28;9.60;94.40
41058;DHT22;66768;48.884;2.258;2023-04-03T10:08:08;9.60;94.20
41058;DHT22;66768;48.884;2.258;2023-04-03T10:10:36;9.60;94.20
41058;DHT22;66768;48.884;2.258;2023-04-03T10:13:06;9.60;94.40
41058;DHT22;66768;48.884;2.258;2023-04-03T10:15:38;9.60;94.00
41058;DHT22;66768;48.884;2.258;2023-04-03T10:18:19;9.60;94.20
41058;DHT22;66768;48.884;2.258;2023-04-03T10:20:52;9.70;94.00
41058;DHT22;66768;48.884;2.258;2023-04-03T10:23:24;9.80;93.80
41058;DHT22;66768;48.884;2.258;2023-04-03T10:25:59;9.80;93.80
41058;DHT22;66768;48.884;2.258;2023-04-03T10:28:35;9.70;93.70
41058;DHT22;66768;48.884;2.258;2023-04-03T10:31:15;9.70;93.50
41058;DHT22;66768;48.884;2.258;2023-04-03T10:33:51;9.90;93.60
41058;DHT22;66768;48.884;2.258;2023-04-03T10:36:27;9.90;93.30
41058;DHT22;66768;48.884;2.258;2023-04-03T10:39:00;9.90;93.30
41058;DHT22;66768;48.884;2.258;2023-04-03T10:41:35;10.00;93.50
41058;DHT22;66768;48.884;2.258;2023-04-03T10:44:12;10.00;92.80
41058;DHT22;66768;48.884;2.258;2023-04-03T10:46:46;10.00;92.90
41058;DHT22;66768;48.884;2.258;2023-04-03T10:49:25;10.00;92.50
41058;DHT22;66768;48.884;2.258;2023-04-03T10:52:00;10.10;92.20
41058;DHT22;66768;48.884;2.258;2023-04-03T10:54:34;10.10;92.50
41058;DHT22;66768;48.884;2.258;2023-04-03T10:57:04;10.10;92.30
41058;DHT22;66768;48.884;2.258;2023-04-03T10:59:35;10.10;91.70
41058;DHT22;66768;48.884;2.258;2023-04-03T11:02:06;10.20;91.80
41058;DHT22;66768;48.884;2.258;2023-04-03T11:04:36;10.10;91.40
41058;DHT22;66768;48.884;2.258;2023-04-03T11:07:10;10.20;91.40
41058;DHT22;66768;48.884;2.258;2023-04-03T11:09:40;10.20;91.30
41058;DHT22;66768;48.884;2.258;2023-04-03T11:12:12;10.20;91.50
41058;DHT22;66768;48.884;2.258;2023-04-03T11:14:40;10.30;91.60
41058;DHT22;66768;48.884;2.258;2023-04-03T11:17:23;10.30;91.80
41058;DHT22;66768;48.884;2.258;2023-04-03T11:19:59;10.30;91.30
41058;DHT22;66768;48.884;2.258;2023-04-03T11:22:29;10.30;91.50
41058;DHT22;66768;48.884;2.258;2023-04-03T11:25:03;10.50;91.50
41058;DHT22;66768;48.884;2.258;2023-04-03T11:27:38;10.50;91.20
41058;DHT22;66768;48.884;2.258;2023-04-03T11:30:13;10.60;91.60
41058;DHT22;66768;48.884;2.258;2023-04-03T11:33:05;10.50;90.80
41058;DHT22;66768;48.884;2.258;2023-04-03T11:35:43;10.50;90.70
41058;DHT22;66768;48.884;2.258;2023-04-03T11:38:18;10.60;91.20
41058;DHT22;66768;48.884;2.258;2023-04-03T11:40:47;10.70;90.80
41058;DHT22;66768;48.884;2.258;2023-04-03T11:43:23;10.60;91.00
41058;DHT22;66768;48.884;2.258;2023-04-03T11:45:54;10.80;90.80
41058;DHT22;66768;48.884;2.258;2023-04-03T11:48:52;10.80;90.60
41058;DHT22;66768;48.884;2.258;2023-04-03T11:51:52;10.80;90.10
41058;DHT22;66768;48.884;2.258;2023-04-03T11:54:51;10.80;89.70
41058;DHT22;66768;48.884;2.258;2023-04-03T11:57:44;10.80;89.30
41058;DHT22;66768;48.884;2.258;2023-04-03T12:04:05;10.90;89.90
41058;DHT22;66768;48.884;2.258;2023-04-03T12:06:53;10.90;88.70
41058;DHT22;66768;48.884;2.258;2023-04-03T12:09:32;10.80;88.60
41058;DHT22;66768;48.884;2.258;2023-04-03T12:12:01;10.90;87.30
41058;DHT22;66768;48.884;2.258;2023-04-03T12:14:47;11.00;87.30
41058;DHT22;66768;48.884;2.258;2023-04-03T12:17:21;11.00;87.50
41058;DHT22;66768;48.884;2.258;2023-04-03T12:19:51;10.90;87.40
41058;DHT22;66768;48.884;2.258;2023-04-03T12:22:19;11.10;88.40
41058;DHT22;66768;48.884;2.258;2023-04-03T12:24:48;11.10;87.00
41058;DHT22;66768;48.884;2.258;2023-04-03T12:27:25;11.10;86.70
41058;DHT22;66768;48.884;2.258;2023-04-03T12:29:58;11.20;86.70
41058;DHT22;66768;48.884;2.258;2023-04-03T12:32:37;11.20;86.00
41058;DHT22;66768;48.884;2.258;2023-04-03T12:35:17;11.30;86.50
41058;DHT22;66768;48.884;2.258;2023-04-03T12:38:15;11.40;86.60
41058;DHT22;66768;48.884;2.258;2023-04-03T12:40:49;11.30;85.60
41058;DHT22;66768;48.884;2.258;2023-04-03T12:43:41;11.40;85.40
41058;DHT22;66768;48.884;2.258;2023-04-03T12:46:14;11.50;85.20
41058;DHT22;66768;48.884;2.258;2023-04-03T12:48:48;11.50;85.10
41058;DHT22;66768;48.884;2.258;2023-04-03T12:51:19;11.60;85.70
41058;DHT22;66768;48.884;2.258;2023-04-03T12:53:49;11.70;86.00
41058;DHT22;66768;48.884;2.258;2023-04-03T12:56:20;11.60;85.10
41058;DHT22;66768;48.884;2.258;2023-04-03T12:58:48;11.70;84.70
41058;DHT22;66768;48.884;2.258;2023-04-03T13:01:17;11.80;85.80
41058;DHT22;66768;48.884;2.258;2023-04-03T13:03:47;11.70;84.00
41058;DHT22;66768;48.884;2.258;2023-04-03T13:06:19;11.80;84.90
41058;DHT22;66768;48.884;2.258;2023-04-03T13:08:52;11.80;84.80
41058;DHT22;66768;48.884;2.258;2023-04-03T13:11:20;11.70;84.70
41058;DHT22;66768;48.884;2.258;2023-04-03T13:13:55;11.80;83.60
41058;DHT22;66768;48.884;2.258;2023-04-03T13:16:22;11.80;83.70
41058;DHT22;66768;48.884;2.258;2023-04-03T13:18:51;11.80;84.10
41058;DHT22;66768;48.884;2.258;2023-04-03T13:21:21;11.80;83.30
41058;DHT22;66768;48.884;2.258;2023-04-03T13:23:51;11.80;83.20
41058;DHT22;66768;48.884;2.258;2023-04-03T13:26:21;11.80;82.30
41058;DHT22;66768;48.884;2.258;2023-04-03T13:28:49;11.80;81.80
41058;DHT22;66768;48.884;2.258;2023-04-03T13:31:23;11.80;82.20
41058;DHT22;66768;48.884;2.258;2023-04-03T13:33:57;11.80;83.00
41058;DHT22;66768;48.884;2.258;2023-04-03T13:36:29;11.90;84.30
41058;DHT22;66768;48.884;2.258;2023-04-03T13:39:02;12.00;83.80
41058;DHT22;66768;48.884;2.258;2023-04-03T13:41:32;12.00;83.80
41058;DHT22;66768;48.884;2.258;2023-04-03T13:44:15;12.00;83.80
41058;DHT22;66768;48.884;2.258;2023-04-03T13:46:42;12.00;83.50
41058;DHT22;66768;48.884;2.258;2023-04-03T13:49:19;12.10;83.20
41058;DHT22;66768;48.884;2.258;2023-04-03T13:51:48;12.10;82.90
41058;DHT22;66768;48.884;2.258;2023-04-03T13:54:20;12.10;83.20
41058;DHT22;66768;48.884;2.258;2023-04-03T13:56:53;12.20;83.00
41058;DHT22;66768;48.884;2.258;2023-04-03T13:59:23;12.20;83.20
41058;DHT22;66768;48.884;2.258;2023-04-03T14:01:53;12.20;83.10
41058;DHT22;66768;48.884;2.258;2023-04-03T14:04:22;12.20;82.90
41058;DHT22;66768;48.884;2.258;2023-04-03T14:06:51;12.20;82.70
41058;DHT22;66768;48.884;2.258;2023-04-03T14:09:22;12.30;83.00
41058;DHT22;66768;48.884;2.258;2023-04-03T14:11:53;12.20;82.80
41058;DHT22;66768;48.884;2.258;2023-04-03T14:14:23;12.10;82.80
41058;DHT22;66768;48.884;2.258;2023-04-03T14:16:53;12.10;83.50
41058;DHT22;66768;48.884;2.258;2023-04-03T14:19:23;12.10;83.70
41058;DHT22;66768;48.884;2.258;2023-04-03T14:21:53;12.10;83.80
41058;DHT22;66768;48.884;2.258;2023-04-03T14:24:21;12.20;83.80
41058;DHT22;66768;48.884;2.258;2023-04-03T14:26:50;12.20;84.40
41058;DHT22;66768;48.884;2.258;2023-04-03T14:29:18;12.20;84.10
41058;DHT22;66768;48.884;2.258;2023-04-03T14:31:46;12.20;83.80
41058;DHT22;66768;48.884;2.258;2023-04-03T14:34:14;12.20;83.90
41058;DHT22;66768;48.884;2.258;2023-04-03T14:36:42;12.20;83.20
41058;DHT22;66768;48.884;2.258;2023-04-03T14:39:17;12.20;83.30
41058;DHT22;66768;48.884;2.258;2023-04-03T14:41:46;12.20;83.70
41058;DHT22;66768;48.884;2.258;2023-04-03T14:44:13;12.30;83.80
41058;DHT22;66768;48.884;2.258;2023-04-03T14:46:42;12.30;83.40
41058;DHT22;66768;48.884;2.258;2023-04-03T14:49:13;12.30;82.40
41058;DHT22;66768;48.884;2.258;2023-04-03T14:51:40;12.30;82.00
41058;DHT22;66768;48.884;2.258;2023-04-03T14:54:15;12.30;82.30
41058;DHT22;66768;48.884;2.258;2023-04-03T14:56:42;12.20;82.30
41058;DHT22;66768;48.884;2.258;2023-04-03T14:59:12;12.30;83.20
41058;DHT22;66768;48.884;2.258;2023-04-03T15:01:39;12.30;83.80
41058;DHT22;66768;48.884;2.258;2023-04-03T15:04:10;12.30;84.10
41058;DHT22;66768;48.884;2.258;2023-04-03T15:06:38;12.30;83.50
41058;DHT22;66768;48.884;2.258;2023-04-03T15:09:05;12.30;84.50
41058;DHT22;66768;48.884;2.258;2023-04-03T15:11:37;12.30;85.20
41058;DHT22;66768;48.884;2.258;2023-04-03T15:14:04;12.30;84.30
41058;DHT22;66768;48.884;2.258;2023-04-03T15:16:31;12.30;84.50
41058;DHT22;66768;48.884;2.258;2023-04-03T15:18:58;12.30;85.00
41058;DHT22;66768;48.884;2.258;2023-04-03T15:21:25;12.40;84.90
41058;DHT22;66768;48.884;2.258;2023-04-03T15:23:51;12.40;84.50
41058;DHT22;66768;48.884;2.258;2023-04-03T15:26:18;12.40;84.40
41058;DHT22;66768;48.884;2.258;2023-04-03T15:28:47;12.50;85.10
41058;DHT22;66768;48.884;2.258;2023-04-03T15:31:14;12.40;84.20
41058;DHT22;66768;48.884;2.258;2023-04-03T15:33:41;12.40;84.10
41058;DHT22;66768;48.884;2.258;2023-04-03T15:36:09;12.50;83.90
41058;DHT22;66768;48.884;2.258;2023-04-03T15:38:35;12.50;83.90
41058;DHT22;66768;48.884;2.258;2023-04-03T15:41:04;12.50;84.30
41058;DHT22;66768;48.884;2.258;2023-04-03T15:43:31;12.50;84.60
41058;DHT22;66768;48.884;2.258;2023-04-03T15:46:01;12.50;84.60
41058;DHT22;66768;48.884;2.258;2023-04-03T15:48:28;12.50;84.70
41058;DHT22;66768;48.884;2.258;2023-04-03T15:50:55;12.50;84.90
41058;DHT22;66768;48.884;2.258;2023-04-03T15:53:22;12.50;85.30
41058;DHT22;66768;48.884;2.258;2023-04-03T15:55:49;12.50;84.70
41058;DHT22;66768;48.884;2.258;2023-04-03T15:58:16;12.50;84.50
41058;DHT22;66768;48.884;2.258;2023-04-03T16:00:43;12.50;84.80